Time;durP1;ratioP1;P1;durP2;ratioP2;P2;SDS_P1;SDS_P2;PMS_P1;PMS_P2;Temp;Humidity;BMP_temperature;BMP_pressure;BME280_temperature;BME280_humidity;BME280_pressure;Samples;Min_cycle;Max_cycle;Signal;HPM_P1;HPM_P2
2022/12/02 00:00:26;;;;;;;25.38;13.57;;;3.20;99.90;;;;;;5045434;28;20095;-78
2022/12/02 00:02:54;;;;;;;31.73;16.70;;;3.20;99.90;;;;;;5066491;28;20048;-78
2022/12/02 00:05:31;;;;;;;29.83;16.60;;;3.20;99.90;;;;;;5050060;28;20044;-78
2022/12/02 00:08:18;;;;;;;24.92;14.20;;;3.20;99.90;;;;;;5067469;28;20181;-78
2022/12/02 00:10:44;;;;;;;25.58;14.02;;;3.20;99.90;;;;;;5060724;28;20044;-78
2022/12/02 00:13:19;;;;;;;23.95;13.15;;;3.20;99.90;;;;;;5049695;28;20075;-78
2022/12/02 00:15:46;;;;;;;26.58;14.82;;;3.20;99.90;;;;;;5061638;28;20049;-78
2022/12/02 00:18:14;;;;;;;25.02;13.55;;;3.20;99.90;;;;;;5066896;28;20141;-78
2022/12/02 00:20:42;;;;;;;21.73;12.95;;;3.20;99.90;;;;;;5053850;28;20066;-77
2022/12/02 00:23:07;;;;;;;24.23;13.50;;;3.20;99.90;;;;;;5060538;28;20052;-77
2022/12/02 00:25:34;;;;;;;26.50;15.38;;;3.20;99.90;;;;;;5072313;28;20044;-78
2022/12/02 00:28:00;;;;;;;28.98;16.38;;;3.30;99.90;;;;;;5055815;28;20473;-77
2022/12/02 00:30:26;;;;;;;31.80;17.45;;;3.30;99.90;;;;;;5071999;28;20032;-79
2022/12/02 00:32:52;;;;;;;27.60;15.65;;;3.30;99.90;;;;;;5055465;28;20045;-78
2022/12/02 00:35:17;;;;;;;25.48;14.82;;;3.30;99.90;;;;;;5060757;28;20056;-78
2022/12/02 00:37:43;;;;;;;33.95;17.90;;;3.30;99.90;;;;;;5035715;28;20045;-77
2022/12/02 00:40:09;;;;;;;28.65;15.32;;;3.30;99.90;;;;;;5035389;28;20148;-77
2022/12/02 00:42:35;;;;;;;28.00;15.30;;;3.30;99.90;;;;;;5051818;28;20523;-78
2022/12/02 00:47:45;;;;;;;25.52;13.93;;;3.30;99.90;;;;;;5050991;28;20052;-78
2022/12/02 00:50:11;;;;;;;26.50;14.32;;;3.30;99.90;;;;;;5035389;28;20052;-77
2022/12/02 00:52:37;;;;;;;29.77;16.67;;;3.30;99.90;;;;;;5068211;28;20516;-78
2022/12/02 00:55:03;;;;;;;27.70;15.57;;;3.30;99.90;;;;;;5034417;28;20103;-77
2022/12/02 00:57:29;;;;;;;31.35;17.45;;;3.30;99.90;;;;;;5055244;28;20044;-77
2022/12/02 00:59:55;;;;;;;27.65;14.50;;;3.30;99.90;;;;;;5070369;28;20496;-78
2022/12/02 01:02:21;;;;;;;27.70;15.00;;;3.30;99.90;;;;;;5049241;28;20040;-78
2022/12/02 01:04:46;;;;;;;20.65;11.20;;;3.30;99.90;;;;;;5053917;28;20052;-77
2022/12/02 01:07:13;;;;;;;35.35;18.27;;;3.20;99.90;;;;;;5051709;28;20056;-77
2022/12/02 01:09:39;;;;;;;30.23;17.10;;;3.30;99.90;;;;;;5059015;28;20045;-72
2022/12/02 01:12:06;;;;;;;31.40;16.17;;;3.30;99.90;;;;;;5067890;28;20115;-72
2022/12/02 01:14:31;;;;;;;25.88;15.20;;;3.20;99.90;;;;;;5023896;28;20093;-72
2022/12/02 01:16:57;;;;;;;26.08;14.98;;;3.20;99.90;;;;;;5069578;28;20483;-72
2022/12/02 01:19:23;;;;;;;24.52;14.10;;;3.20;99.90;;;;;;5040478;28;20071;-72
2022/12/02 01:21:49;;;;;;;26.98;14.95;;;3.20;99.90;;;;;;5049426;28;20456;-72
2022/12/02 01:24:15;;;;;;;31.20;16.65;;;3.20;99.90;;;;;;5050268;28;20091;-72
2022/12/02 01:26:40;;;;;;;26.75;14.35;;;3.20;99.90;;;;;;5056327;28;20059;-72
2022/12/02 01:29:06;;;;;;;25.13;13.55;;;3.20;99.90;;;;;;5068427;28;20530;-72
2022/12/02 01:31:33;;;;;;;27.10;14.27;;;3.20;99.90;;;;;;5069449;28;20044;-72
2022/12/02 01:33:58;;;;;;;21.55;11.73;;;3.20;99.90;;;;;;5052874;28;20055;-72
2022/12/02 01:36:24;;;;;;;21.10;11.95;;;3.20;99.90;;;;;;5069527;28;20040;-72
2022/12/02 01:38:50;;;;;;;24.38;13.10;;;3.20;99.90;;;;;;5068535;28;20048;-72
2022/12/02 01:41:15;;;;;;;21.65;12.30;;;3.20;99.90;;;;;;5068360;28;20555;-72
2022/12/02 01:43:41;;;;;;;23.05;12.25;;;3.20;99.90;;;;;;5069335;28;20052;-72
2022/12/02 01:46:07;;;;;;;22.27;12.38;;;3.10;99.90;;;;;;5052266;28;20056;-72
2022/12/02 01:48:35;;;;;;;22.50;11.85;;;3.20;99.90;;;;;;5051452;28;20044;-72
2022/12/02 01:51:01;;;;;;;21.85;11.27;;;3.10;99.90;;;;;;5052083;28;20055;-72
2022/12/02 01:53:27;;;;;;;22.63;12.65;;;3.10;99.90;;;;;;5051672;28;20147;-72
2022/12/02 01:55:53;;;;;;;21.20;11.63;;;3.10;99.90;;;;;;5052356;28;20044;-72
2022/12/02 01:58:24;;;;;;;19.25;10.27;;;3.10;99.90;;;;;;5049527;28;20040;-72
2022/12/02 02:00:50;;;;;;;20.65;10.45;;;3.10;99.90;;;;;;5050481;28;20067;-72
2022/12/02 02:03:16;;;;;;;20.85;11.05;;;3.10;99.90;;;;;;5053676;28;20071;-72
2022/12/02 02:05:42;;;;;;;27.45;13.65;;;3.10;99.90;;;;;;5052493;28;20076;-72
2022/12/02 02:08:11;;;;;;;24.55;12.73;;;3.10;99.90;;;;;;5068136;28;20045;-72
2022/12/02 02:10:38;;;;;;;30.90;15.32;;;3.10;99.90;;;;;;5048810;28;20044;-72
2022/12/02 02:13:07;;;;;;;32.60;16.08;;;3.10;99.90;;;;;;5032608;28;20032;-72
2022/12/02 02:15:33;;;;;;;35.53;16.73;;;3.10;99.90;;;;;;5060857;28;20062;-72
2022/12/02 02:17:59;;;;;;;36.47;18.67;;;3.10;99.90;;;;;;5040759;28;20033;-72
2022/12/02 02:20:26;;;;;;;32.53;16.63;;;3.10;99.90;;;;;;5078843;28;20448;-72
2022/12/02 02:23:18;;;;;;;33.45;16.27;;;3.10;99.90;;;;;;5067473;28;20037;-72
2022/12/02 02:25:51;;;;;;;29.92;14.82;;;3.10;99.90;;;;;;5061430;28;20055;-72
2022/12/02 02:28:18;;;;;;;30.83;15.77;;;3.10;99.90;;;;;;5032645;28;20136;-72
2022/12/02 02:30:43;;;;;;;34.95;16.55;;;3.10;99.90;;;;;;5053517;28;20055;-72
2022/12/02 02:33:11;;;;;;;26.25;12.50;;;3.10;99.90;;;;;;5070637;28;20037;-72
2022/12/02 02:35:41;;;;;;;30.83;15.38;;;3.10;99.90;;;;;;5067986;28;20091;-72
2022/12/02 02:38:10;;;;;;;25.13;12.95;;;3.10;99.90;;;;;;5072134;28;20506;-73
2022/12/02 02:40:37;;;;;;;22.15;12.18;;;3.10;99.90;;;;;;5065661;28;20123;-72
2022/12/02 02:43:04;;;;;;;25.70;13.18;;;3.10;99.90;;;;;;5070842;28;20487;-72
2022/12/02 02:45:32;;;;;;;;;;;3.10;99.90;;;;;;5056625;28;20136;-72
2022/12/02 02:47:59;;;;;;;30.48;15.65;;;3.00;99.90;;;;;;5071632;28;19926;-71
2022/12/02 02:50:25;;;;;;;28.75;13.90;;;3.00;99.90;;;;;;5068410;28;20047;-71
2022/12/02 02:52:51;;;;;;;27.58;14.25;;;3.00;99.90;;;;;;5070414;28;20118;-71
2022/12/02 02:55:20;;;;;;;26.77;14.85;;;3.00;99.90;;;;;;5053339;28;20045;-72
2022/12/02 02:57:46;;;;;;;32.83;15.70;;;3.00;99.90;;;;;;5053983;28;20044;-73
2022/12/02 03:00:13;;;;;;;23.55;13.23;;;3.00;99.90;;;;;;5052627;28;20049;-72
2022/12/02 03:02:40;;;;;;;29.55;15.45;;;3.00;99.90;;;;;;5035482;28;20402;-71
2022/12/02 03:05:07;;;;;;;27.63;14.55;;;2.90;99.90;;;;;;5051761;28;20052;-72
2022/12/02 03:07:33;;;;;;;27.40;14.90;;;2.90;99.90;;;;;;5018760;28;20036;-72
2022/12/02 03:09:59;;;;;;;24.65;13.10;;;2.90;99.90;;;;;;5036711;28;20071;-72
2022/12/02 03:12:25;;;;;;;29.23;14.43;;;2.90;99.90;;;;;;5071097;28;20041;-73
2022/12/02 03:14:51;;;;;;;21.63;11.07;;;2.90;99.90;;;;;;5072062;28;20154;-73
2022/12/02 03:17:17;;;;;;;22.30;12.52;;;2.90;99.90;;;;;;5055173;28;20502;-72
2022/12/02 03:19:43;;;;;;;30.05;15.18;;;2.90;99.90;;;;;;5050193;28;20123;-72
2022/12/02 03:22:09;;;;;;;22.58;12.00;;;2.90;99.90;;;;;;5055223;28;20077;-72
2022/12/02 03:24:36;;;;;;;26.88;14.45;;;2.80;99.90;;;;;;5051780;28;20045;-73
2022/12/02 03:27:03;;;;;;;27.38;13.88;;;2.80;99.90;;;;;;5051368;28;20045;-72
2022/12/02 03:29:29;;;;;;;22.48;12.23;;;2.80;99.90;;;;;;5054036;28;20779;-72
2022/12/02 03:31:57;;;;;;;20.15;10.88;;;2.80;99.90;;;;;;5055678;28;20418;-73
2022/12/02 03:34:23;;;;;;;23.05;11.57;;;2.80;99.90;;;;;;5051068;28;20059;-72
2022/12/02 03:36:49;;;;;;;15.90;8.45;;;2.70;99.90;;;;;;5056496;28;20115;-77
2022/12/02 03:39:16;;;;;;;16.40;8.98;;;2.80;99.90;;;;;;5058548;28;20484;-77
2022/12/02 03:41:42;;;;;;;20.92;10.27;;;2.70;99.90;;;;;;5053784;28;20374;-78
2022/12/02 03:44:08;;;;;;;;;;;2.70;99.90;;;;;;5061471;28;20394;-72
2022/12/02 03:46:34;;;;;;;27.40;14.20;;;2.70;99.90;;;;;;5034970;28;19973;-72
2022/12/02 03:49:01;;;;;;;27.55;13.13;;;2.70;99.90;;;;;;5051024;28;20097;-72
2022/12/02 03:51:27;;;;;;;23.83;12.00;;;2.70;99.90;;;;;;5051255;28;20124;-72
2022/12/02 03:53:53;;;;;;;23.65;12.35;;;2.60;99.90;;;;;;5057195;28;20574;-72
2022/12/02 03:56:18;;;;;;;19.40;10.68;;;2.70;99.90;;;;;;5070154;28;20048;-73
2022/12/02 03:58:47;;;;;;;22.33;11.70;;;2.70;99.90;;;;;;5070087;28;20040;-72
2022/12/02 04:01:13;;;;;;;24.45;12.38;;;2.70;99.90;;;;;;5066849;28;20039;-72
2022/12/02 04:03:39;;;;;;;22.88;10.88;;;2.60;99.90;;;;;;5066840;28;20511;-72
2022/12/02 04:06:05;;;;;;;17.90;9.30;;;2.60;99.90;;;;;;5069150;28;20041;-72
2022/12/02 04:08:31;;;;;;;29.88;14.15;;;2.70;99.90;;;;;;5049325;28;20043;-72
2022/12/02 04:10:57;;;;;;;29.27;14.27;;;2.70;99.90;;;;;;5053238;28;20049;-72
2022/12/02 04:13:22;;;;;;;28.42;14.18;;;2.70;99.90;;;;;;5065714;28;20068;-72
2022/12/02 04:15:48;;;;;;;29.42;14.00;;;2.70;99.90;;;;;;5050216;28;20043;-72
2022/12/02 04:18:14;;;;;;;26.60;13.57;;;2.60;99.90;;;;;;5063254;28;20128;-72
2022/12/02 04:20:40;;;;;;;25.27;12.23;;;2.70;99.90;;;;;;5056740;28;20037;-72
2022/12/02 04:23:06;;;;;;;21.02;10.98;;;2.70;99.90;;;;;;5050541;28;20041;-72
2022/12/02 04:25:31;;;;;;;20.38;9.88;;;2.70;99.90;;;;;;5049955;28;20049;-72
2022/12/02 04:27:57;;;;;;;19.88;9.27;;;2.70;99.90;;;;;;5035926;28;20515;-72
2022/12/02 04:30:23;;;;;;;19.20;9.85;;;2.70;99.90;;;;;;5021465;28;20045;-72
2022/12/02 04:32:49;;;;;;;28.38;13.65;;;2.70;99.90;;;;;;5058757;28;20037;-73
2022/12/02 04:35:14;;;;;;;26.00;13.40;;;2.70;99.90;;;;;;5068928;28;20043;-73
2022/12/02 04:37:40;;;;;;;32.30;14.93;;;2.70;99.90;;;;;;5069617;28;20382;-73
2022/12/02 04:40:07;;;;;;;31.27;15.18;;;2.70;99.90;;;;;;5038020;28;20406;-73
2022/12/02 04:42:32;;;;;;;32.20;14.70;;;2.70;99.90;;;;;;5033279;28;20500;-73
2022/12/02 04:44:58;;;;;;;28.13;14.07;;;2.70;99.90;;;;;;5049313;28;20063;-73
2022/12/02 04:47:24;;;;;;;26.42;12.32;;;2.70;99.90;;;;;;5063979;28;20793;-73
2022/12/02 04:49:50;;;;;;;20.52;10.63;;;2.70;99.90;;;;;;5037882;28;20040;-73
2022/12/02 04:52:15;;;;;;;25.33;12.82;;;2.70;99.90;;;;;;5049642;28;20136;-72
2022/12/02 04:54:41;;;;;;;23.25;11.60;;;2.70;99.90;;;;;;5035459;28;20056;-72
2022/12/02 04:57:07;;;;;;;21.23;10.35;;;2.70;99.90;;;;;;5053272;28;20044;-72
2022/12/02 04:59:33;;;;;;;21.98;10.77;;;2.70;99.90;;;;;;5041214;28;20041;-72
2022/12/02 05:01:59;;;;;;;17.73;8.93;;;2.70;99.90;;;;;;5049558;28;20044;-72
2022/12/02 05:04:25;;;;;;;33.70;16.20;;;2.70;99.90;;;;;;5050076;28;20450;-72
2022/12/02 05:06:50;;;;;;;26.08;12.50;;;2.70;99.90;;;;;;5066934;28;20041;-72
2022/12/02 05:09:16;;;;;;;25.65;12.70;;;2.70;99.90;;;;;;5056625;28;20040;-72
2022/12/02 05:11:42;;;;;;;29.02;13.40;;;2.70;99.90;;;;;;5069589;28;20491;-72
2022/12/02 05:14:07;;;;;;;23.67;11.48;;;2.70;99.90;;;;;;5065656;28;20063;-72
2022/12/02 05:16:33;;;;;;;21.58;11.38;;;2.70;99.90;;;;;;5059648;28;20059;-72
2022/12/02 05:18:59;;;;;;;19.30;9.40;;;2.70;99.90;;;;;;5049359;28;20044;-72
2022/12/02 05:21:24;;;;;;;28.52;14.23;;;2.70;99.90;;;;;;5049531;28;20041;-71
2022/12/02 05:23:50;;;;;;;21.35;11.65;;;2.70;99.90;;;;;;5050174;28;20135;-71
2022/12/02 05:26:16;;;;;;;24.90;13.07;;;2.70;99.90;;;;;;5068773;28;20515;-73
2022/12/02 05:28:41;;;;;;;29.08;13.52;;;2.70;99.90;;;;;;5065458;28;20044;-72
2022/12/02 05:31:07;;;;;;;23.10;11.48;;;2.70;99.90;;;;;;5029654;28;20066;-72
2022/12/02 05:33:33;;;;;;;19.52;10.43;;;2.70;99.90;;;;;;5048651;28;20044;-71
2022/12/02 05:35:58;;;;;;;28.00;11.95;;;2.70;99.90;;;;;;5025437;28;20890;-72
2022/12/02 05:38:24;;;;;;;23.70;11.85;;;2.70;99.90;;;;;;5033021;28;20447;-72
2022/12/02 05:40:54;;;;;;;27.13;12.77;;;2.70;99.90;;;;;;5048370;28;20443;-72
2022/12/02 05:43:24;;;;;;;35.38;15.32;;;2.70;99.90;;;;;;5059098;28;20041;-72
2022/12/02 05:45:51;;;;;;;28.85;13.77;;;2.70;99.90;;;;;;5049770;28;20094;-72
2022/12/02 05:48:18;;;;;;;41.10;17.38;;;2.70;99.90;;;;;;5057165;28;20355;-73
2022/12/02 05:50:45;;;;;;;32.60;15.55;;;2.70;99.90;;;;;;5036849;28;20036;-72
2022/12/02 05:53:19;;;;;;;38.25;17.58;;;2.60;99.90;;;;;;5066674;28;20048;-72
2022/12/02 05:55:45;;;;;;;36.72;16.63;;;2.70;99.90;;;;;;5060950;28;20048;-71
2022/12/02 05:58:12;;;;;;;34.83;16.95;;;2.70;99.90;;;;;;5063293;28;20412;-70
2022/12/02 06:00:38;;;;;;;38.55;18.10;;;2.70;99.90;;;;;;5048077;28;20037;-71
2022/12/02 06:03:13;;;;;;;35.55;15.95;;;2.70;99.90;;;;;;5063952;28;20067;-77
2022/12/02 06:05:42;;;;;;;36.38;16.42;;;2.80;99.90;;;;;;5052653;28;20102;-78
2022/12/02 06:08:17;;;;;;;38.55;16.60;;;2.80;99.90;;;;;;5070376;28;20132;-78
2022/12/02 06:10:47;;;;;;;43.72;19.48;;;2.80;99.90;;;;;;5051052;28;20048;-78
2022/12/02 06:13:18;;;;;;;39.65;18.17;;;2.80;99.90;;;;;;5060793;28;20036;-78
2022/12/02 06:15:44;;;;;;;34.55;16.75;;;2.80;99.90;;;;;;5046226;28;20041;-78
2022/12/02 06:18:22;;;;;;;36.78;17.40;;;2.80;99.90;;;;;;5036838;28;20385;-77
2022/12/02 06:20:54;;;;;;;37.45;17.45;;;2.80;99.90;;;;;;5058820;28;20029;-77
2022/12/02 06:23:20;;;;;;;39.67;18.25;;;2.90;99.90;;;;;;5057465;28;20196;-77
2022/12/02 06:25:48;;;;;;;38.72;17.55;;;2.90;99.90;;;;;;5060071;28;20365;-77
2022/12/02 06:28:30;;;;;;;32.22;14.93;;;2.80;99.90;;;;;;5060190;28;20048;-77
2022/12/02 06:31:18;;;;;;;29.65;15.02;;;2.90;99.90;;;;;;5060942;28;20051;-78
2022/12/02 06:33:46;;;;;;;33.38;15.98;;;2.90;99.90;;;;;;5049517;28;20495;-78
2022/12/02 06:36:25;;;;;;;35.28;16.05;;;2.90;99.90;;;;;;5059665;28;20048;-77
2022/12/02 06:39:20;;;;;;;39.45;17.67;;;2.90;99.90;;;;;;5037950;28;20029;-77
2022/12/02 06:41:47;;;;;;;33.88;15.65;;;2.90;99.90;;;;;;5059401;28;20040;-78
2022/12/02 06:47:32;;;;;;;34.53;15.43;;;2.90;99.90;;;;;;5079614;28;20011;-77
2022/12/02 06:50:23;;;;;;;37.33;17.58;;;3.00;99.90;;;;;;5039886;28;20043;-77
2022/12/02 06:52:49;;;;;;;34.75;15.82;;;3.00;99.90;;;;;;5038537;28;20040;-77
2022/12/02 06:55:39;;;;;;;40.67;17.52;;;3.00;99.90;;;;;;5041091;28;20103;-78
2022/12/02 06:58:14;;;;;;;34.33;16.15;;;3.00;99.90;;;;;;5053913;28;20037;-77
2022/12/02 07:00:39;;;;;;;35.00;16.00;;;3.00;99.90;;;;;;5060804;28;20037;-77
2022/12/02 07:03:23;;;;;;;33.47;15.93;;;3.00;99.90;;;;;;5063209;28;20033;-76
2022/12/02 07:05:53;;;;;;;31.92;14.80;;;3.00;99.90;;;;;;5057705;28;20608;-77
2022/12/02 07:08:19;;;;;;;37.30;17.75;;;3.00;99.90;;;;;;5052246;28;20045;-77
2022/12/02 07:10:44;;;;;;;37.75;18.33;;;3.10;99.90;;;;;;5056411;28;20090;-76
2022/12/02 07:13:17;;;;;;;37.22;17.15;;;3.00;99.90;;;;;;5034134;28;20123;-76
2022/12/02 07:15:43;;;;;;;39.70;17.23;;;3.10;99.90;;;;;;5037088;28;20505;-77
2022/12/02 07:18:11;;;;;;;41.60;18.73;;;3.10;99.90;;;;;;5053176;28;20133;-77
2022/12/02 07:20:38;;;;;;;40.67;19.63;;;3.10;99.90;;;;;;5054873;28;20066;-76
2022/12/02 07:23:22;;;;;;;47.45;20.58;;;3.20;99.90;;;;;;5066300;28;20044;-77
2022/12/02 07:25:59;;;;;;;41.97;18.27;;;3.20;99.90;;;;;;5052562;28;20053;-77
2022/12/02 07:28:33;;;;;;;39.17;16.67;;;3.20;99.90;;;;;;5051495;28;20072;-77
2022/12/02 07:31:22;;;;;;;46.53;21.52;;;3.20;99.90;;;;;;5052859;28;20028;-77
2022/12/02 07:33:48;;;;;;;50.97;22.02;;;3.20;99.90;;;;;;5055982;28;20044;-78
2022/12/02 07:36:14;;;;;;;44.47;20.95;;;3.20;99.90;;;;;;5060002;28;20037;-78
2022/12/02 07:38:39;;;;;;;44.25;20.83;;;3.20;99.90;;;;;;5035368;28;20067;-77
2022/12/02 07:41:05;;;;;;;48.07;22.40;;;3.20;99.90;;;;;;5035378;28;20044;-77
2022/12/02 07:43:32;;;;;;;49.83;21.77;;;3.20;99.90;;;;;;5051755;28;20302;-77
2022/12/02 07:45:59;;;;;;;50.05;21.95;;;3.20;99.90;;;;;;5057174;28;20377;-78
2022/12/02 07:48:25;;;;;;;44.70;20.60;;;3.20;99.90;;;;;;5064156;28;20124;-76
2022/12/02 07:50:50;;;;;;;50.40;23.42;;;3.20;99.90;;;;;;5060175;28;20123;-76
2022/12/02 07:53:16;;;;;;;46.40;21.40;;;3.20;99.90;;;;;;5053482;28;20040;-76
2022/12/02 07:55:42;;;;;;;40.45;20.00;;;3.20;99.90;;;;;;5057190;28;20052;-77
2022/12/02 07:58:08;;;;;;;35.53;18.50;;;3.20;99.90;;;;;;5040846;28;20029;-77
2022/12/02 08:00:34;;;;;;;44.83;20.38;;;3.10;99.90;;;;;;5061222;28;20131;-78
2022/12/02 08:03:00;;;;;;;;;;;3.10;99.90;;;;;;5039406;28;20041;-76
2022/12/02 08:05:26;;;;;;;47.00;21.67;;;3.10;99.90;;;;;;5063255;28;20011;-77
2022/12/02 08:07:52;;;;;;;51.25;23.15;;;3.00;99.90;;;;;;5058194;28;20044;-78
2022/12/02 08:10:18;;;;;;;50.58;22.27;;;3.00;99.90;;;;;;5052016;28;20131;-76
2022/12/02 08:12:44;;;;;;;48.35;22.13;;;2.90;99.90;;;;;;5071390;28;20444;-77
2022/12/02 08:15:11;;;;;;;44.75;20.95;;;2.90;99.90;;;;;;5041561;28;20094;-77
2022/12/02 08:17:37;;;;;;;46.83;20.80;;;2.90;99.90;;;;;;5057308;28;20044;-76
2022/12/02 08:20:05;;;;;;;49.33;22.17;;;2.90;99.90;;;;;;5063618;28;20179;-76
2022/12/02 08:22:31;;;;;;;38.20;18.40;;;2.80;99.90;;;;;;5047094;28;20120;-77
2022/12/02 08:24:57;;;;;;;41.07;17.53;;;2.80;99.90;;;;;;5053764;28;20123;-77
2022/12/02 08:27:22;;;;;;;33.08;15.40;;;2.70;99.90;;;;;;5052152;28;20318;-77
2022/12/02 08:29:49;;;;;;;35.67;17.27;;;2.70;99.90;;;;;;5038709;28;20044;-77
2022/12/02 08:32:16;;;;;;;40.95;18.35;;;2.70;99.90;;;;;;5060737;28;20069;-77
2022/12/02 08:34:41;;;;;;;40.90;18.27;;;2.60;99.90;;;;;;5057389;28;20256;-77
2022/12/02 08:37:07;;;;;;;40.78;18.15;;;2.60;99.90;;;;;;5037963;28;20556;-77
2022/12/02 08:39:33;;;;;;;46.05;19.45;;;2.50;99.90;;;;;;5059423;28;20643;-77
2022/12/02 08:41:59;;;;;;;41.15;18.50;;;2.50;99.90;;;;;;5040408;28;20071;-77
2022/12/02 08:44:25;;;;;;;43.70;19.55;;;2.50;99.90;;;;;;5064691;28;20060;-76
2022/12/02 08:46:50;;;;;;;38.95;17.80;;;2.40;99.90;;;;;;5045431;28;20101;-76
2022/12/02 08:49:16;;;;;;;40.50;17.95;;;2.30;99.90;;;;;;5038810;28;20048;-76
2022/12/02 08:51:42;;;;;;;34.90;15.98;;;2.30;99.90;;;;;;5060211;28;20048;-76
2022/12/02 08:54:08;;;;;;;30.77;14.70;;;2.30;99.90;;;;;;5060297;28;20112;-75
2022/12/02 08:56:33;;;;;;;39.03;17.60;;;2.30;99.90;;;;;;5046772;28;20061;-76
2022/12/02 08:59:01;;;;;;;39.17;17.80;;;2.30;99.90;;;;;;5066895;28;20763;-75
2022/12/02 09:01:27;;;;;;;33.95;16.00;;;2.30;99.90;;;;;;5050285;28;20056;-75
2022/12/02 09:03:53;;;;;;;35.25;16.92;;;2.30;99.90;;;;;;5062495;28;20491;-76
2022/12/02 09:06:19;;;;;;;34.88;17.60;;;2.20;99.90;;;;;;5040911;28;20502;-76
2022/12/02 09:08:44;;;;;;;38.55;17.42;;;2.30;99.90;;;;;;5063935;28;20041;-76
2022/12/02 09:11:10;;;;;;;32.90;15.45;;;2.30;99.90;;;;;;5045160;28;20959;-75
2022/12/02 09:13:36;;;;;;;37.35;16.70;;;2.20;99.90;;;;;;5068071;28;20109;-75
2022/12/02 09:16:01;;;;;;;33.70;16.05;;;2.30;99.90;;;;;;5059792;28;20121;-75
2022/12/02 09:18:27;;;;;;;31.75;14.80;;;2.30;99.90;;;;;;5038188;28;20043;-75
2022/12/02 09:20:53;;;;;;;37.15;15.95;;;2.20;99.90;;;;;;5057413;28;20048;-76
2022/12/02 09:23:18;;;;;;;31.08;15.38;;;2.30;99.90;;;;;;5049986;28;20133;-76
2022/12/02 09:25:44;;;;;;;32.60;15.30;;;2.30;99.90;;;;;;5020078;28;20048;-76
2022/12/02 09:28:10;;;;;;;38.58;16.73;;;2.30;99.90;;;;;;5036112;28;20048;-76
2022/12/02 09:30:36;;;;;;;36.90;17.15;;;2.30;99.90;;;;;;5060024;28;20480;-76
2022/12/02 09:33:01;;;;;;;34.80;15.02;;;2.20;99.90;;;;;;5053946;28;20687;-77
2022/12/02 09:35:27;;;;;;;35.35;14.77;;;2.20;99.90;;;;;;5034989;28;20100;-75
2022/12/02 09:37:53;;;;;;;42.90;17.48;;;2.30;99.90;;;;;;5050519;28;20037;-75
2022/12/02 09:40:19;;;;;;;40.35;15.77;;;2.30;99.90;;;;;;5052967;28;20442;-76
2022/12/02 09:42:45;;;;;;;40.42;17.33;;;2.30;99.90;;;;;;5069212;28;20040;-76
2022/12/02 09:45:12;;;;;;;39.53;16.35;;;2.40;99.90;;;;;;5065280;28;20516;-76
2022/12/02 09:47:38;;;;;;;37.22;16.52;;;2.40;99.90;;;;;;5058319;28;20049;-76
2022/12/02 09:50:05;;;;;;;35.35;15.70;;;2.40;99.90;;;;;;5041893;28;20972;-76
2022/12/02 09:52:31;;;;;;;31.10;14.90;;;2.40;99.90;;;;;;5039038;28;20151;-76
2022/12/02 09:54:58;;;;;;;31.33;14.15;;;2.50;99.90;;;;;;5038780;28;20049;-76
2022/12/02 09:57:29;;;;;;;27.83;13.32;;;2.50;99.90;;;;;;5058200;28;20149;-76
2022/12/02 09:59:58;;;;;;;38.78;15.32;;;2.50;99.90;;;;;;5053440;28;20118;-76
2022/12/02 10:02:43;;;;;;;35.53;16.00;;;2.50;99.90;;;;;;5038126;28;20107;-76
2022/12/02 10:05:27;;;;;;;31.17;13.80;;;2.50;99.90;;;;;;5056286;28;20484;-74
2022/12/02 10:07:57;;;;;;;31.55;14.23;;;2.70;99.90;;;;;;5068241;28;20048;-76
2022/12/02 10:10:27;;;;;;;30.83;15.20;;;2.70;99.90;;;;;;5062433;28;20049;-76
2022/12/02 10:12:53;;;;;;;34.95;16.55;;;2.70;99.90;;;;;;5053756;28;20118;-76
2022/12/02 10:15:27;;;;;;;34.67;16.60;;;2.70;99.90;;;;;;5065466;28;20512;-76
2022/12/02 10:17:54;;;;;;;38.63;17.48;;;2.70;99.90;;;;;;5048999;28;20048;-76
2022/12/02 10:20:26;;;;;;;36.97;16.08;;;2.60;99.90;;;;;;5050734;28;20056;-76
2022/12/02 10:23:14;;;;;;;33.30;15.85;;;2.60;99.90;;;;;;5067925;28;20067;-76
2022/12/02 10:25:45;;;;;;;30.55;14.45;;;2.70;99.90;;;;;;5060776;28;20045;-75
2022/12/02 10:28:27;;;;;;;35.83;16.80;;;2.70;99.90;;;;;;5056544;28;20626;-78
2022/12/02 10:31:18;;;;;;;34.70;16.98;;;2.70;99.90;;;;;;5068847;28;20045;-80
2022/12/02 10:33:59;;;;;;;36.47;17.67;;;2.70;99.90;;;;;;5047804;28;20086;-78
2022/12/02 10:36:43;;;;;;;29.95;15.77;;;2.70;99.90;;;;;;5055565;28;20045;-76
2022/12/02 10:39:26;;;;;;;33.78;16.48;;;2.70;99.90;;;;;;5033157;28;20033;-76
2022/12/02 10:41:51;;;;;;;30.80;15.68;;;2.70;99.90;;;;;;5057731;28;20516;-76
2022/12/02 10:44:19;;;;;;;34.30;16.40;;;2.70;99.90;;;;;;5054751;28;20250;-77
2022/12/02 10:46:46;;;;;;;34.85;18.45;;;2.70;99.90;;;;;;5036281;28;20303;-77
2022/12/02 10:49:26;;;;;;;35.95;17.90;;;2.70;99.90;;;;;;5054477;28;20128;-77
2022/12/02 10:51:53;;;;;;;36.97;18.33;;;2.70;99.90;;;;;;5051384;28;21056;-71
2022/12/02 10:54:28;;;;;;;35.30;17.50;;;2.70;99.90;;;;;;5063172;28;20341;-77
2022/12/02 10:56:59;;;;;;;29.83;16.85;;;2.80;99.90;;;;;;5061719;28;20036;-77
2022/12/02 10:59:25;;;;;;;30.02;15.10;;;2.70;99.90;;;;;;5065437;28;20108;-77
2022/12/02 11:01:52;;;;;;;34.17;18.27;;;2.80;99.90;;;;;;5036051;28;20041;-77
2022/12/02 11:04:18;;;;;;;35.75;17.73;;;2.80;99.90;;;;;;5060176;28;20044;-77
2022/12/02 11:06:44;;;;;;;32.17;17.45;;;2.70;99.90;;;;;;5043550;28;20498;-78
2022/12/02 11:09:21;;;;;;;;;;;2.70;99.90;;;;;;5057701;28;20049;-76
2022/12/02 11:11:48;;;;;;;32.95;17.85;;;2.80;99.90;;;;;;5054086;28;20391;-76
2022/12/02 11:14:33;;;;;;;;;;;2.80;99.90;;;;;;5061574;28;20119;-77
2022/12/02 11:17:12;;;;;;;32.72;15.95;;;2.80;99.90;;;;;;5061731;28;19917;-77
2022/12/02 11:19:42;;;;;;;35.47;17.67;;;2.80;99.90;;;;;;5057113;28;20753;-77
2022/12/02 11:22:45;;;;;;;32.47;17.77;;;2.80;99.90;;;;;;5059612;28;20055;-77
2022/12/02 11:25:42;;;;;;;36.03;18.42;;;2.80;99.90;;;;;;5040166;28;20049;-77
2022/12/02 11:28:33;;;;;;;37.63;20.20;;;2.80;99.90;;;;;;5056781;28;20044;-76
2022/12/02 11:31:08;;;;;;;38.55;21.50;;;2.80;99.90;;;;;;5057353;28;20048;-77
2022/12/02 11:34:00;;;;;;;41.60;21.70;;;2.80;99.90;;;;;;5060779;28;20127;-76
2022/12/02 11:36:31;;;;;;;39.67;22.00;;;2.90;99.90;;;;;;5047973;28;20500;-76
2022/12/02 11:39:00;;;;;;;39.92;21.63;;;2.90;99.90;;;;;;5061040;28;20060;-76
2022/12/02 11:41:46;;;;;;;35.90;21.02;;;2.90;99.90;;;;;;5060125;28;20048;-76
2022/12/02 11:44:28;;;;;;;34.20;19.75;;;2.90;99.90;;;;;;5058208;28;20121;-76
2022/12/02 11:46:58;;;;;;;40.78;22.67;;;3.00;99.90;;;;;;5059332;28;20499;-77
2022/12/02 11:49:36;;;;;;;45.67;25.35;;;3.00;99.90;;;;;;5056431;28;20350;-76
2022/12/02 11:52:08;;;;;;;41.22;23.60;;;2.90;99.90;;;;;;5057825;28;20437;-76
2022/12/02 11:54:39;;;;;;;40.22;22.35;;;3.00;99.90;;;;;;5056753;28;20057;-76
2022/12/02 11:57:05;;;;;;;37.30;21.33;;;3.00;99.90;;;;;;5059080;28;20068;-77
2022/12/02 11:59:35;;;;;;;36.15;22.45;;;3.00;99.90;;;;;;5061786;28;20128;-76
2022/12/02 12:02:14;;;;;;;40.95;23.25;;;3.00;99.90;;;;;;5058156;28;20165;-76
2022/12/02 12:04:41;;;;;;;39.28;22.35;;;3.00;99.90;;;;;;5059851;28;20041;-77
2022/12/02 12:07:07;;;;;;;37.53;22.00;;;2.90;99.90;;;;;;5041354;28;20452;-76
2022/12/02 12:09:33;;;;;;;38.22;22.30;;;2.90;99.90;;;;;;5056731;28;20081;-72
2022/12/02 12:12:13;;;;;;;35.92;20.92;;;3.00;99.90;;;;;;5045802;28;20418;-72
2022/12/02 12:15:03;;;;;;;33.70;19.05;;;3.00;99.90;;;;;;5064747;28;20389;-72
2022/12/02 12:17:38;;;;;;;32.17;18.55;;;3.00;99.90;;;;;;5059228;28;20044;-72
2022/12/02 12:20:13;;;;;;;35.95;20.73;;;3.10;99.90;;;;;;5060954;28;20384;-72
2022/12/02 12:22:39;;;;;;;35.53;21.02;;;3.00;99.90;;;;;;5048746;28;20060;-71
2022/12/02 12:25:24;;;;;;;;;;;3.00;99.90;;;;;;5061183;28;20214;-71
2022/12/02 12:27:49;;;;;;;32.63;19.60;;;3.00;99.90;;;;;;5050133;28;20387;-71
2022/12/02 12:30:15;;;;;;;33.17;19.87;;;3.00;99.90;;;;;;5049565;28;20040;-71
2022/12/02 12:32:40;;;;;;;35.17;20.87;;;3.00;99.90;;;;;;5061665;28;20301;-79
2022/12/02 12:35:06;;;;;;;31.27;18.88;;;3.00;99.90;;;;;;5051475;28;20313;-79
2022/12/02 12:37:32;;;;;;;35.45;19.67;;;2.90;99.90;;;;;;5058706;28;20059;-79
2022/12/02 12:39:58;;;;;;;33.13;19.75;;;2.90;99.90;;;;;;5067524;28;20388;-78
2022/12/02 12:42:24;;;;;;;34.45;19.58;;;2.90;99.90;;;;;;5047855;28;20109;-78
2022/12/02 12:44:51;;;;;;;31.77;18.73;;;2.90;99.90;;;;;;5058130;28;20060;-78
2022/12/02 12:47:16;;;;;;;35.30;20.77;;;2.80;99.90;;;;;;5051690;28;20045;-78
2022/12/02 12:49:42;;;;;;;32.33;18.27;;;2.90;99.90;;;;;;5056331;28;20421;-79
2022/12/02 12:52:08;;;;;;;31.77;19.20;;;2.80;99.90;;;;;;5042530;28;20378;-78